sensor_id;sensor_type;location;lat;lon;timestamp;pressure;altitude;pressure_sealevel;temperature;humidity
80869;BME280;70295;40.182;44.498;2023-05-28T00:00:35;90284.14;;;18.59;44.67695
80869;BME280;70295;40.182;44.498;2023-05-28T00:01:35;90284.59;;;18.57;44.68769
80869;BME280;70295;40.182;44.498;2023-05-28T00:02:35;90285.97;;;18.55;44.6623
80869;BME280;70295;40.182;44.498;2023-05-28T00:03:35;90287.3;;;18.53;44.71699
80869;BME280;70295;40.182;44.498;2023-05-28T00:04:35;90288.48;;;18.51;44.7248
80869;BME280;70295;40.182;44.498;2023-05-28T00:05:35;90284.49;;;18.48;44.71113
80869;BME280;70295;40.182;44.498;2023-05-28T00:06:35;90288.03;;;18.45;44.74141
80869;BME280;70295;40.182;44.498;2023-05-28T00:07:35;90286.92;;;18.42;44.76094
80869;BME280;70295;40.182;44.498;2023-05-28T00:08:35;90290.27;;;18.39;44.75898
80869;BME280;70295;40.182;44.498;2023-05-28T00:09:35;90293.74;;;18.38;44.73555
80869;BME280;70295;40.182;44.498;2023-05-28T00:10:35;90293.84;;;18.36;44.73359
80869;BME280;70295;40.182;44.498;2023-05-28T00:11:35;90293.63;;;18.33;44.75215
80869;BME280;70295;40.182;44.498;2023-05-28T00:12:35;90293.59;;;18.3;44.78242
80869;BME280;70295;40.182;44.498;2023-05-28T00:13:35;90296.09;;;18.26;44.82441
80869;BME280;70295;40.182;44.498;2023-05-28T00:14:35;90295.66;;;18.24;44.88984
80869;BME280;70295;40.182;44.498;2023-05-28T00:15:35;90294.58;;;18.24;44.92305
80869;BME280;70295;40.182;44.498;2023-05-28T00:16:37;90294.03;;;18.16;44.92598
80869;BME280;70295;40.182;44.498;2023-05-28T00:17:37;90294.27;;;18.15;44.90254
80869;BME280;70295;40.182;44.498;2023-05-28T00:18:37;90298.28;;;18.14;44.95723
80869;BME280;70295;40.182;44.498;2023-05-28T00:19:37;90298.46;;;18.14;44.97969
80869;BME280;70295;40.182;44.498;2023-05-28T00:20:37;90296.47;;;18.14;44.99141
80869;BME280;70295;40.182;44.498;2023-05-28T00:21:38;90299.26;;;18.16;44.99336
80869;BME280;70295;40.182;44.498;2023-05-28T00:22:38;90295.06;;;18.17;44.95039
80869;BME280;70295;40.182;44.498;2023-05-28T00:23:37;90297.3;;;18.19;44.92988
80869;BME280;70295;40.182;44.498;2023-05-28T00:24:37;90294.28;;;18.19;44.88398
80869;BME280;70295;40.182;44.498;2023-05-28T00:25:37;90295.33;;;18.19;44.8498
80869;BME280;70295;40.182;44.498;2023-05-28T00:26:37;90295.38;;;18.18;44.87226
80869;BME280;70295;40.182;44.498;2023-05-28T00:27:37;90294.52;;;18.17;44.89375
80869;BME280;70295;40.182;44.498;2023-05-28T00:28:37;90292.91;;;18.17;44.89375
80869;BME280;70295;40.182;44.498;2023-05-28T00:29:37;90293.13;;;18.16;44.89277
80869;BME280;70295;40.182;44.498;2023-05-28T00:30:37;90295.84;;;18.16;44.91426
80869;BME280;70295;40.182;44.498;2023-05-28T00:31:37;90293.67;;;18.16;44.90254
80869;BME280;70295;40.182;44.498;2023-05-28T00:32:37;90292.52;;;18.14;44.95723
80869;BME280;70295;40.182;44.498;2023-05-28T00:33:37;90292.61;;;18.12;44.96601
80869;BME280;70295;40.182;44.498;2023-05-28T00:34:37;90295.14;;;18.08;45.03047
80869;BME280;70295;40.182;44.498;2023-05-28T00:35:37;90294.17;;;18.05;45.06074
80869;BME280;70295;40.182;44.498;2023-05-28T00:36:37;90295.39;;;18.02;45.14766
80869;BME280;70295;40.182;44.498;2023-05-28T00:37:37;90295.09;;;18;45.24726
80869;BME280;70295;40.182;44.498;2023-05-28T00:38:37;90293.15;;;18;45.26875
80869;BME280;70295;40.182;44.498;2023-05-28T00:39:37;90296.7;;;18.01;45.29316
80869;BME280;70295;40.182;44.498;2023-05-28T00:40:41;90294.63;;;18.03;45.34004
80869;BME280;70295;40.182;44.498;2023-05-28T00:41:37;90299.08;;;18.04;45.35273
80869;BME280;70295;40.182;44.498;2023-05-28T00:42:37;90300.61;;;18.06;45.34297
80869;BME280;70295;40.182;44.498;2023-05-28T00:43:37;90299.61;;;18.08;45.33418
80869;BME280;70295;40.182;44.498;2023-05-28T00:44:38;90301.31;;;18.1;45.30293
80869;BME280;70295;40.182;44.498;2023-05-28T00:45:37;90301.43;;;18.12;45.28242
80869;BME280;70295;40.182;44.498;2023-05-28T00:46:41;90300.44;;;18.14;45.2834
80869;BME280;70295;40.182;44.498;2023-05-28T00:47:42;90303.39;;;18.16;45.26387
80869;BME280;70295;40.182;44.498;2023-05-28T00:48:42;90296.64;;;18.18;45.25508
80869;BME280;70295;40.182;44.498;2023-05-28T00:49:42;90297.16;;;18.19;45.19941
80869;BME280;70295;40.182;44.498;2023-05-28T00:50:42;90300.77;;;18.19;45.14277
80869;BME280;70295;40.182;44.498;2023-05-28T00:51:42;90296.28;;;18.18;45.13105
80869;BME280;70295;40.182;44.498;2023-05-28T00:52:42;90294.84;;;18.18;45.11934
80869;BME280;70295;40.182;44.498;2023-05-28T00:53:47;90298.58;;;18.19;45.10957
80869;BME280;70295;40.182;44.498;2023-05-28T00:54:47;90298.92;;;18.2;45.06562
80869;BME280;70295;40.182;44.498;2023-05-28T00:55:47;90299.11;;;18.2;45.06562
80869;BME280;70295;40.182;44.498;2023-05-28T00:56:47;90295.45;;;18.2;45.05391
80869;BME280;70295;40.182;44.498;2023-05-28T00:57:47;90293.11;;;18.2;44.98652
80869;BME280;70295;40.182;44.498;2023-05-28T00:58:47;90293.64;;;18.21;44.96504
80869;BME280;70295;40.182;44.498;2023-05-28T00:59:47;90292.75;;;18.21;44.95332
80869;BME280;70295;40.182;44.498;2023-05-28T01:00:47;90292.2;;;18.21;44.95332
80869;BME280;70295;40.182;44.498;2023-05-28T01:01:47;90286.93;;;18.22;44.9543
80869;BME280;70295;40.182;44.498;2023-05-28T01:02:47;90289.09;;;18.22;44.96601
80869;BME280;70295;40.182;44.498;2023-05-28T01:03:47;90289.58;;;18.23;44.96699
80869;BME280;70295;40.182;44.498;2023-05-28T01:04:48;90289.83;;;18.21;44.9543
80869;BME280;70295;40.182;44.498;2023-05-28T01:05:48;90287.97;;;18.22;44.93281
80869;BME280;70295;40.182;44.498;2023-05-28T01:06:48;90285.26;;;18.23;44.87617
80869;BME280;70295;40.182;44.498;2023-05-28T01:07:48;90287.78;;;18.23;44.87617
80869;BME280;70295;40.182;44.498;2023-05-28T01:08:48;90285.81;;;18.22;44.87617
80869;BME280;70295;40.182;44.498;2023-05-28T01:09:48;90287.47;;;18.22;44.86445
80869;BME280;70295;40.182;44.498;2023-05-28T01:10:48;90288.5;;;18.23;44.85371
80869;BME280;70295;40.182;44.498;2023-05-28T01:11:48;90289.05;;;18.22;44.86543
80869;BME280;70295;40.182;44.498;2023-05-28T01:12:30;90289.31;;;18.21;44.94258
80869;BME280;70295;40.182;44.498;2023-05-28T01:13:30;90288;;;18.18;44.89473
80869;BME280;70295;40.182;44.498;2023-05-28T01:14:30;90288.94;;;18.17;44.88301
80869;BME280;70295;40.182;44.498;2023-05-28T01:15:30;90287.19;;;18.16;44.93769
80869;BME280;70295;40.182;44.498;2023-05-28T01:16:30;90288.14;;;18.15;44.91426
80869;BME280;70295;40.182;44.498;2023-05-28T01:17:30;90287.16;;;18.13;44.90059
80869;BME280;70295;40.182;44.498;2023-05-28T01:18:30;90284.2;;;18.1;44.83027
80869;BME280;70295;40.182;44.498;2023-05-28T01:19:30;90283.8;;;18.07;44.84883
80869;BME280;70295;40.182;44.498;2023-05-28T01:20:30;90281.11;;;18.03;44.83418
80869;BME280;70295;40.182;44.498;2023-05-28T01:21:30;90280.96;;;17.98;44.88496
80869;BME280;70295;40.182;44.498;2023-05-28T01:22:30;90282.36;;;17.96;44.97285
80869;BME280;70295;40.182;44.498;2023-05-28T01:23:11;90280.89;;;17.92;44.99043
80869;BME280;70295;40.182;44.498;2023-05-28T01:24:09;90283.2;;;17.88;45.16719
80869;BME280;70295;40.182;44.498;2023-05-28T01:25:09;90283.16;;;17.86;45.23164
80869;BME280;70295;40.182;44.498;2023-05-28T01:26:12;90284.58;;;17.82;45.26191
80869;BME280;70295;40.182;44.498;2023-05-28T01:27:03;90284.7;;;17.87;45.18769
80869;BME280;70295;40.182;44.498;2023-05-28T01:28:10;90284.08;;;17.81;45.29512
80869;BME280;70295;40.182;44.498;2023-05-28T01:29:12;90283.7;;;17.74;45.43379
80869;BME280;70295;40.182;44.498;2023-05-28T01:30:02;90283.64;;;17.78;45.42695
80869;BME280;70295;40.182;44.498;2023-05-28T01:31:02;90281.81;;;17.75;45.41133
80869;BME280;70295;40.182;44.498;2023-05-28T01:32:02;90282.84;;;17.73;45.47676
80869;BME280;70295;40.182;44.498;2023-05-28T01:33:01;90283.66;;;17.7;45.50801
80869;BME280;70295;40.182;44.498;2023-05-28T01:34:02;90289.55;;;17.67;45.57148
80869;BME280;70295;40.182;44.498;2023-05-28T01:35:02;90281.55;;;17.64;45.63691
80869;BME280;70295;40.182;44.498;2023-05-28T01:36:03;90281.77;;;17.63;45.6916
80869;BME280;70295;40.182;44.498;2023-05-28T01:37:06;90280.6;;;17.61;45.75703
80869;BME280;70295;40.182;44.498;2023-05-28T01:37:50;90277.26;;;17.68;45.71894
80869;BME280;70295;40.182;44.498;2023-05-28T01:38:42;90281.05;;;17.63;45.74824
80869;BME280;70295;40.182;44.498;2023-05-28T01:39:35;90274.28;;;17.75;45.59199
80869;BME280;70295;40.182;44.498;2023-05-28T01:40:09;90272.63;;;17.72;45.55488
80869;BME280;70295;40.182;44.498;2023-05-28T01:41:09;90277.89;;;17.75;45.60273
80869;BME280;70295;40.182;44.498;2023-05-28T01:42:09;90277.8;;;17.76;45.5041
80869;BME280;70295;40.182;44.498;2023-05-28T01:43:09;90280.86;;;17.77;45.45918
80869;BME280;70295;40.182;44.498;2023-05-28T01:44:09;90277.75;;;17.78;45.43769
80869;BME280;70295;40.182;44.498;2023-05-28T01:45:09;90277.7;;;17.79;45.43867
80869;BME280;70295;40.182;44.498;2023-05-28T01:46:09;90278.61;;;17.78;45.43769
80869;BME280;70295;40.182;44.498;2023-05-28T01:47:09;90279.08;;;17.8;45.3498
80869;BME280;70295;40.182;44.498;2023-05-28T01:48:09;90278.18;;;17.8;45.32734
80869;BME280;70295;40.182;44.498;2023-05-28T01:49:09;90278.18;;;17.8;45.30488
80869;BME280;70295;40.182;44.498;2023-05-28T01:50:09;90281.44;;;17.79;45.30391
80869;BME280;70295;40.182;44.498;2023-05-28T01:51:09;90280.39;;;17.79;45.31562
80869;BME280;70295;40.182;44.498;2023-05-28T01:52:09;90281.7;;;17.78;45.29121
80869;BME280;70295;40.182;44.498;2023-05-28T01:53:09;90284.77;;;17.77;45.25703
80869;BME280;70295;40.182;44.498;2023-05-28T01:54:09;90281.41;;;17.76;45.29023
80869;BME280;70295;40.182;44.498;2023-05-28T01:55:09;90283.59;;;17.76;45.2668
80869;BME280;70295;40.182;44.498;2023-05-28T01:56:09;90285.39;;;17.76;45.27754
80869;BME280;70295;40.182;44.498;2023-05-28T01:57:09;90287.17;;;17.76;45.29023
80869;BME280;70295;40.182;44.498;2023-05-28T01:58:09;90287.14;;;17.77;45.27949
80869;BME280;70295;40.182;44.498;2023-05-28T01:59:09;90289.45;;;17.78;45.30195
80869;BME280;70295;40.182;44.498;2023-05-28T02:00:09;90292.23;;;17.8;45.28144
80869;BME280;70295;40.182;44.498;2023-05-28T02:01:10;90293.77;;;17.82;45.25117
80869;BME280;70295;40.182;44.498;2023-05-28T02:02:14;90296.31;;;17.85;45.2082
80869;BME280;70295;40.182;44.498;2023-05-28T02:03:14;90297.7;;;17.87;45.17695
80869;BME280;70295;40.182;44.498;2023-05-28T02:04:14;90293.45;;;17.89;45.15742
80869;BME280;70295;40.182;44.498;2023-05-28T02:05:14;90292.69;;;17.9;45.13594
80869;BME280;70295;40.182;44.498;2023-05-28T02:06:14;90298;;;17.92;45.09297
80869;BME280;70295;40.182;44.498;2023-05-28T02:07:14;90297.59;;;17.93;45.06074
80869;BME280;70295;40.182;44.498;2023-05-28T02:08:14;90300.55;;;17.95;45.02851
80869;BME280;70295;40.182;44.498;2023-05-28T02:09:14;90299.75;;;17.97;44.99629
80869;BME280;70295;40.182;44.498;2023-05-28T02:10:14;90304.91;;;17.98;44.96406
80869;BME280;70295;40.182;44.498;2023-05-28T02:11:14;90306.48;;;18;44.96504
80869;BME280;70295;40.182;44.498;2023-05-28T02:12:14;90306.97;;;18.01;44.95625
80869;BME280;70295;40.182;44.498;2023-05-28T02:13:14;90307.24;;;18.03;44.93574
80869;BME280;70295;40.182;44.498;2023-05-28T02:14:14;90309.66;;;18.05;44.88105
80869;BME280;70295;40.182;44.498;2023-05-28T02:15:15;90308.2;;;18.06;44.84785
80869;BME280;70295;40.182;44.498;2023-05-28T02:16:14;90305.28;;;18.07;44.81562
80869;BME280;70295;40.182;44.498;2023-05-28T02:17:14;90311.77;;;18.07;44.80391
80869;BME280;70295;40.182;44.498;2023-05-28T02:18:14;90308.98;;;18.08;44.77168
80869;BME280;70295;40.182;44.498;2023-05-28T02:19:14;90309.69;;;18.09;44.77168
80869;BME280;70295;40.182;44.498;2023-05-28T02:20:14;90310.55;;;18.1;44.76191
80869;BME280;70295;40.182;44.498;2023-05-28T02:21:14;90310.5;;;18.1;44.76289
80869;BME280;70295;40.182;44.498;2023-05-28T02:22:14;90313.73;;;18.11;44.75117
80869;BME280;70295;40.182;44.498;2023-05-28T02:23:14;90314.95;;;18.12;44.75215
80869;BME280;70295;40.182;44.498;2023-05-28T02:24:14;90314.17;;;18.13;44.74336
80869;BME280;70295;40.182;44.498;2023-05-28T02:25:14;90316.83;;;18.14;44.69941
80869;BME280;70295;40.182;44.498;2023-05-28T02:26:14;90322.23;;;18.14;44.71016
80869;BME280;70295;40.182;44.498;2023-05-28T02:27:14;90316.46;;;18.14;44.69941
80869;BME280;70295;40.182;44.498;2023-05-28T02:28:14;90320.74;;;18.15;44.72285
80869;BME280;70295;40.182;44.498;2023-05-28T02:29:14;90323.08;;;18.15;44.73359
80869;BME280;70295;40.182;44.498;2023-05-28T02:30:14;90325.03;;;18.16;44.74531
80869;BME280;70295;40.182;44.498;2023-05-28T02:31:14;90323.59;;;18.16;44.68867
80869;BME280;70295;40.182;44.498;2023-05-28T02:32:14;90325.3;;;18.14;44.73262
80869;BME280;70295;40.182;44.498;2023-05-28T02:33:14;90324.05;;;18.14;44.77656
80869;BME280;70295;40.182;44.498;2023-05-28T02:34:14;90325.7;;;18.13;44.77656
80869;BME280;70295;40.182;44.498;2023-05-28T02:35:14;90327.02;;;18.12;44.80976
80869;BME280;70295;40.182;44.498;2023-05-28T02:36:14;90327.2;;;18.12;44.82051
80869;BME280;70295;40.182;44.498;2023-05-28T02:37:14;90328.41;;;18.13;44.78828
80869;BME280;70295;40.182;44.498;2023-05-28T02:38:14;90326.67;;;18.11;44.75215
80869;BME280;70295;40.182;44.498;2023-05-28T02:39:14;90327.34;;;18.09;44.7834
80869;BME280;70295;40.182;44.498;2023-05-28T02:40:14;90327.21;;;18.08;44.82734
80869;BME280;70295;40.182;44.498;2023-05-28T02:41:14;90328.56;;;18.06;44.82539
80869;BME280;70295;40.182;44.498;2023-05-28T02:42:14;90330.48;;;18.03;44.82246
80869;BME280;70295;40.182;44.498;2023-05-28T02:43:14;90332.38;;;18.01;44.85469
80869;BME280;70295;40.182;44.498;2023-05-28T02:44:14;90334.09;;;17.98;44.9416
80869;BME280;70295;40.182;44.498;2023-05-28T02:45:14;90334.86;;;17.97;44.99629
80869;BME280;70295;40.182;44.498;2023-05-28T02:46:14;90336.53;;;17.96;45.05098
80869;BME280;70295;40.182;44.498;2023-05-28T02:47:14;90341.75;;;17.97;45.06367
80869;BME280;70295;40.182;44.498;2023-05-28T02:48:14;90339.05;;;17.96;45.08516
80869;BME280;70295;40.182;44.498;2023-05-28T02:49:14;90340.98;;;17.98;45.12129
80869;BME280;70295;40.182;44.498;2023-05-28T02:50:14;90341.06;;;18;45.0998
80869;BME280;70295;40.182;44.498;2023-05-28T02:51:14;90339.48;;;18.03;45.10371
80869;BME280;70295;40.182;44.498;2023-05-28T02:52:14;90340.96;;;18.06;45.0959
80869;BME280;70295;40.182;44.498;2023-05-28T02:53:14;90337.34;;;18.1;45.11152
80869;BME280;70295;40.182;44.498;2023-05-28T02:54:14;90335.71;;;18.15;45.04902
80869;BME280;70295;40.182;44.498;2023-05-28T02:55:14;90336.28;;;18.18;45.02949
80869;BME280;70295;40.182;44.498;2023-05-28T02:56:14;90334.77;;;18.23;45.09101
80869;BME280;70295;40.182;44.498;2023-05-28T02:57:14;90333.34;;;18.32;45.05488
80869;BME280;70295;40.182;44.498;2023-05-28T02:58:14;90332.75;;;18.41;45.00703
80869;BME280;70295;40.182;44.498;2023-05-28T02:59:14;90333.42;;;18.5;44.94941
80869;BME280;70295;40.182;44.498;2023-05-28T03:00:14;90330.26;;;18.6;44.84687
80869;BME280;70295;40.182;44.498;2023-05-28T03:01:14;90330.59;;;18.69;44.73262
80869;BME280;70295;40.182;44.498;2023-05-28T03:02:14;90329.83;;;18.77;44.60664
80869;BME280;70295;40.182;44.498;2023-05-28T03:03:14;90326.48;;;18.87;44.52656
80869;BME280;70295;40.182;44.498;2023-05-28T03:04:14;90328.9;;;18.97;44.37812
80869;BME280;70295;40.182;44.498;2023-05-28T03:05:14;90327.61;;;19.05;44.29609
80869;BME280;70295;40.182;44.498;2023-05-28T03:06:14;90327.01;;;19.14;44.21504
80869;BME280;70295;40.182;44.498;2023-05-28T03:07:14;90326.49;;;19.24;44.11152
80869;BME280;70295;40.182;44.498;2023-05-28T03:08:14;90327.54;;;19.32;43.97383
80869;BME280;70295;40.182;44.498;2023-05-28T03:09:14;90326.19;;;19.42;43.80293
80869;BME280;70295;40.182;44.498;2023-05-28T03:10:14;90331.03;;;19.5;43.67598
80869;BME280;70295;40.182;44.498;2023-05-28T03:11:14;90333.95;;;19.57;43.54707
80869;BME280;70295;40.182;44.498;2023-05-28T03:12:14;90337.55;;;19.64;43.3957
80869;BME280;70295;40.182;44.498;2023-05-28T03:13:14;90339.32;;;19.68;43.25312
80869;BME280;70295;40.182;44.498;2023-05-28T03:14:14;90336.78;;;19.72;43.12129
80869;BME280;70295;40.182;44.498;2023-05-28T03:15:14;90342.72;;;19.76;42.97773
80869;BME280;70295;40.182;44.498;2023-05-28T03:16:14;90346.57;;;19.79;42.85664
80869;BME280;70295;40.182;44.498;2023-05-28T03:17:14;90349.83;;;19.82;42.72383
80869;BME280;70295;40.182;44.498;2023-05-28T03:18:14;90348.23;;;19.85;42.55684
80869;BME280;70295;40.182;44.498;2023-05-28T03:19:14;90352.2;;;19.89;42.53828
80869;BME280;70295;40.182;44.498;2023-05-28T03:20:14;90350.44;;;19.95;42.52168
80869;BME280;70295;40.182;44.498;2023-05-28T03:21:14;90352.63;;;20.02;42.46016
80869;BME280;70295;40.182;44.498;2023-05-28T03:22:14;90356.39;;;20.09;42.34297
80869;BME280;70295;40.182;44.498;2023-05-28T03:23:14;90358.84;;;20.19;42.22773
80869;BME280;70295;40.182;44.498;2023-05-28T03:24:14;90357.78;;;20.29;42.09004
80869;BME280;70295;40.182;44.498;2023-05-28T03:25:14;90360.15;;;20.39;41.98652
80869;BME280;70295;40.182;44.498;2023-05-28T03:26:14;90360.05;;;20.47;41.81367
80869;BME280;70295;40.182;44.498;2023-05-28T03:27:14;90359.58;;;20.56;41.70918
80869;BME280;70295;40.182;44.498;2023-05-28T03:28:14;90363.27;;;20.65;41.52559
80869;BME280;70295;40.182;44.498;2023-05-28T03:29:14;90361.05;;;20.73;41.3625
80869;BME280;70295;40.182;44.498;2023-05-28T03:30:14;90361.85;;;20.81;41.27949
80869;BME280;70295;40.182;44.498;2023-05-28T03:31:14;90363.81;;;20.92;41.15351
80869;BME280;70295;40.182;44.498;2023-05-28T03:32:14;90360.2;;;21.02;41.09492
80869;BME280;70295;40.182;44.498;2023-05-28T03:33:14;90361.81;;;21.12;40.93476
80869;BME280;70295;40.182;44.498;2023-05-28T03:34:14;90357.23;;;21.23;40.72871
80869;BME280;70295;40.182;44.498;2023-05-28T03:35:14;90356.53;;;21.32;40.56758
80869;BME280;70295;40.182;44.498;2023-05-28T03:36:14;90359.55;;;21.43;40.38398
80869;BME280;70295;40.182;44.498;2023-05-28T03:37:14;90359.34;;;21.53;40.29121
80869;BME280;70295;40.182;44.498;2023-05-28T03:38:14;90363.69;;;21.63;40.18672
80869;BME280;70295;40.182;44.498;2023-05-28T03:39:14;90360.05;;;21.73;40.04902
80869;BME280;70295;40.182;44.498;2023-05-28T03:40:14;90358.92;;;21.83;39.85371
80869;BME280;70295;40.182;44.498;2023-05-28T03:41:14;90359.84;;;21.92;39.70234
80869;BME280;70295;40.182;44.498;2023-05-28T03:42:14;90359.12;;;22.01;39.50508
80869;BME280;70295;40.182;44.498;2023-05-28T03:43:14;90360.66;;;22.09;39.29707
80869;BME280;70295;40.182;44.498;2023-05-28T03:44:14;90358.86;;;22.18;39.12226
80869;BME280;70295;40.182;44.498;2023-05-28T03:45:14;90360.34;;;22.26;38.92598
80869;BME280;70295;40.182;44.498;2023-05-28T03:46:14;90361.81;;;22.36;38.69453
80869;BME280;70295;40.182;44.498;2023-05-28T03:47:14;90362.19;;;22.45;38.45234
80869;BME280;70295;40.182;44.498;2023-05-28T03:48:14;90364.4;;;22.53;38.2541
80869;BME280;70295;40.182;44.498;2023-05-28T03:49:14;90364.36;;;22.6;38.07832
80869;BME280;70295;40.182;44.498;2023-05-28T03:50:14;90364.36;;;22.69;37.96016
80869;BME280;70295;40.182;44.498;2023-05-28T03:51:14;90367.8;;;22.78;37.78535
80869;BME280;70295;40.182;44.498;2023-05-28T03:52:14;90371.26;;;22.86;37.5998
80869;BME280;70295;40.182;44.498;2023-05-28T03:53:14;90370.47;;;22.93;37.4582
80869;BME280;70295;40.182;44.498;2023-05-28T03:54:14;90372.83;;;23.02;37.33906
80869;BME280;70295;40.182;44.498;2023-05-28T03:55:14;90368.85;;;23.11;37.2209
80869;BME280;70295;40.182;44.498;2023-05-28T03:56:14;90374.65;;;23.2;37.05781
80869;BME280;70295;40.182;44.498;2023-05-28T03:57:14;90366.72;;;23.28;36.92695
80869;BME280;70295;40.182;44.498;2023-05-28T03:58:14;90368.95;;;23.36;36.76289
80869;BME280;70295;40.182;44.498;2023-05-28T03:59:14;90370.84;;;23.43;36.64277
80869;BME280;70295;40.182;44.498;2023-05-28T04:00:14;90368.22;;;23.5;36.58027
80869;BME280;70295;40.182;44.498;2023-05-28T04:01:14;90366.7;;;23.56;36.43672
80869;BME280;70295;40.182;44.498;2023-05-28T04:02:14;90370.34;;;23.59;36.33613
80869;BME280;70295;40.182;44.498;2023-05-28T04:03:14;90363.57;;;23.62;36.32832
80869;BME280;70295;40.182;44.498;2023-05-28T04:04:14;90361.73;;;23.69;36.32246
80869;BME280;70295;40.182;44.498;2023-05-28T04:05:14;90366;;;23.76;36.21309
80869;BME280;70295;40.182;44.498;2023-05-28T04:06:14;90366.33;;;23.79;36.10273
80869;BME280;70295;40.182;44.498;2023-05-28T04:07:14;90364.41;;;23.83;36.16328
80869;BME280;70295;40.182;44.498;2023-05-28T04:08:14;90359.27;;;23.82;35.98945
80869;BME280;70295;40.182;44.498;2023-05-28T04:09:14;90359.66;;;23.75;36.08711
80869;BME280;70295;40.182;44.498;2023-05-28T04:10:14;90359.15;;;23.69;36.27656
80869;BME280;70295;40.182;44.498;2023-05-28T04:11:14;90357.06;;;23.65;36.41035
80869;BME280;70295;40.182;44.498;2023-05-28T04:12:14;90354.97;;;23.63;36.46601
80869;BME280;70295;40.182;44.498;2023-05-28T04:13:14;90356.69;;;23.59;36.33613
80869;BME280;70295;40.182;44.498;2023-05-28T04:14:14;90356.03;;;23.53;36.43476
80869;BME280;70295;40.182;44.498;2023-05-28T04:15:14;90356.79;;;23.49;36.51191
80869;BME280;70295;40.182;44.498;2023-05-28T04:16:14;90352.73;;;23.48;36.54414
80869;BME280;70295;40.182;44.498;2023-05-28T04:17:14;90347.91;;;23.46;36.54316
80869;BME280;70295;40.182;44.498;2023-05-28T04:18:14;90347.13;;;23.47;36.60078
80869;BME280;70295;40.182;44.498;2023-05-28T04:19:14;90343.98;;;23.48;36.52168
80869;BME280;70295;40.182;44.498;2023-05-28T04:20:14;90338.4;;;23.47;36.44062
80869;BME280;70295;40.182;44.498;2023-05-28T04:21:14;90340.52;;;23.46;36.50801
80869;BME280;70295;40.182;44.498;2023-05-28T04:22:14;90338.88;;;23.46;36.67988
80869;BME280;70295;40.182;44.498;2023-05-28T04:23:14;90344.83;;;23.46;36.67988
80869;BME280;70295;40.182;44.498;2023-05-28T04:24:14;90340.66;;;23.46;36.56562
80869;BME280;70295;40.182;44.498;2023-05-28T04:25:14;90342.72;;;23.45;36.27949
80869;BME280;70295;40.182;44.498;2023-05-28T04:26:14;90344.59;;;23.44;35.79902
80869;BME280;70295;40.182;44.498;2023-05-28T04:27:14;90341.46;;;23.44;35.86738
80869;BME280;70295;40.182;44.498;2023-05-28T04:28:14;90339.3;;;23.47;36.04121
80869;BME280;70295;40.182;44.498;2023-05-28T04:29:14;90339.68;;;23.52;36.18281
80869;BME280;70295;40.182;44.498;2023-05-28T04:30:14;90339.88;;;23.58;36.07246
80869;BME280;70295;40.182;44.498;2023-05-28T04:31:14;90339.2;;;23.63;36.10078
80869;BME280;70295;40.182;44.498;2023-05-28T04:32:14;90337.99;;;23.7;35.96894
80869;BME280;70295;40.182;44.498;2023-05-28T04:33:16;90338.91;;;23.76;35.7668
80869;BME280;70295;40.182;44.498;2023-05-28T04:34:00;90336.45;;;23.74;35.82344
80869;BME280;70295;40.182;44.498;2023-05-28T04:35:00;90340.36;;;23.79;35.61055
80869;BME280;70295;40.182;44.498;2023-05-28T04:36:00;90340.35;;;23.82;35.37226
80869;BME280;70295;40.182;44.498;2023-05-28T04:37:00;90342.3;;;23.82;35.21309
80869;BME280;70295;40.182;44.498;2023-05-28T04:38:00;90343.77;;;23.82;35.24726
80869;BME280;70295;40.182;44.498;2023-05-28T04:39:00;90341.13;;;23.84;35.41914
80869;BME280;70295;40.182;44.498;2023-05-28T04:40:00;90342.88;;;23.85;35.55879
80869;BME280;70295;40.182;44.498;2023-05-28T04:41:00;90339.47;;;23.87;35.71992
80869;BME280;70295;40.182;44.498;2023-05-28T04:42:00;90339.29;;;23.92;35.80488
80869;BME280;70295;40.182;44.498;2023-05-28T04:43:00;90344.93;;;24.01;35.59297
80869;BME280;70295;40.182;44.498;2023-05-28T04:44:00;90343.98;;;24.06;35.62129
80869;BME280;70295;40.182;44.498;2023-05-28T04:45:00;90346.04;;;24.11;35.45332
80869;BME280;70295;40.182;44.498;2023-05-28T04:46:00;90340.01;;;24.14;35.36445
80869;BME280;70295;40.182;44.498;2023-05-28T04:47:00;90340.73;;;24.2;35.38008
80869;BME280;70295;40.182;44.498;2023-05-28T04:48:00;90339.22;;;24.29;35.37617
80869;BME280;70295;40.182;44.498;2023-05-28T04:49:00;90345.73;;;24.38;35.16621
80869;BME280;70295;40.182;44.498;2023-05-28T04:50:01;90346.84;;;24.46;35.06953
80869;BME280;70295;40.182;44.498;2023-05-28T04:51:00;90346.05;;;24.52;34.89082
80869;BME280;70295;40.182;44.498;2023-05-28T04:51:40;90345.91;;;24.57;34.81465
80869;BME280;70295;40.182;44.498;2023-05-28T04:52:40;90345.99;;;24.55;34.97383
80869;BME280;70295;40.182;44.498;2023-05-28T04:53:40;90345.36;;;24.62;34.77266
80869;BME280;70295;40.182;44.498;2023-05-28T04:54:40;90342.21;;;24.65;34.62617
80869;BME280;70295;40.182;44.498;2023-05-28T04:55:40;90342.63;;;24.7;34.46992
80869;BME280;70295;40.182;44.498;2023-05-28T04:56:40;90341.25;;;24.77;34.39473
80869;BME280;70295;40.182;44.498;2023-05-28T04:57:40;90338.48;;;24.85;34.32148
80869;BME280;70295;40.182;44.498;2023-05-28T04:58:40;90342.84;;;24.93;34.13301
80869;BME280;70295;40.182;44.498;2023-05-28T04:59:40;90341.63;;;24.97;34.0207
80869;BME280;70295;40.182;44.498;2023-05-28T05:00:40;90341.75;;;25.03;33.81953